Huvudsida
METAR-TAF:

METAR-TAF

Flygplatser :

Recifes internationella flygplats

Recife, Pernambuco, Brasilien

latitud: 08-08S, longitud: 034-55W, höjd: 19 m

Aktuellt väderrapport

Denna rapport gjordes för 8 minuter sedan, klockan 13:00 UTC
Vind 11 kt från sydost, varierande mellan ost och syd
Temperatur 30°C
Fuktighet 62%
Tryck 1013 hPa
Sikt 10 km eller mer
Spridda moln på en höjd av 2300 ft

METAR: SBRF 121300Z 14011KT 100V180 9999 SCT023 30/22 Q1013

Tid: 10:08 (13:08 UTC)

Väderprognos

Denna rapport gjordes för 3 timmar och 8 minuter sedan, klockan 10:00 UTC
Prognos gäller från 12 kl. 12 UTC till 13 kl. 12 UTC
Vind 10 kt från sydost
Sikt 10 km eller mer
Spridda moln på en höjd av 2300 ft

TAF: SBRF 121000Z 1212/1312 13010KT 9999 SCT023 TX29/1214Z TN24/1306Z RMK PEH

Aktuella väderrapporter och prognoser från 4000 flygplatser (METAR- och TAF-rapporter).

De tillgängliga stationerna syns som gula och röda prickar på kartan.

För musen över prickarna för att se namnen på stationerna.

Klicka sedan för att få väderrapporter och prognoser.

För att ändra kartan: Klicka på de gröna knapparna med ett svart kors på för att zooma in; den gröna knappen med ett streck på för att zooma ut; eller på de gröna pilarna för angränsande kartor.


METAR-TAF: